Time;durP1;ratioP1;P1;durP2;ratioP2;P2;SDS_P1;SDS_P2;PMS_P1;PMS_P2;Temp;Humidity;BMP_temperature;BMP_pressure;BME280_temperature;BME280_humidity;BME280_pressure;Samples;Min_cycle;Max_cycle;Signal;HPM_P1;HPM_P2
2021/04/30 00:00:57;;;;;;;1.10;0.80;;;;;;;;;;5013959;28;20179;-71
2021/04/30 00:03:23;;;;;;;1.10;0.80;;;;;;;;;;5014008;28;20485;-72
2021/04/30 00:05:49;;;;;;;1.10;0.80;;;;;;;;;;5037639;28;20448;-72
2021/04/30 00:08:15;;;;;;;1.02;0.70;;;;;;;;;;5034586;28;20187;-72
2021/04/30 00:10:41;;;;;;;1.10;0.80;;;;;;;;;;5033657;28;20228;-72
2021/04/30 00:13:07;;;;;;;1.10;0.80;;;;;;;;;;5033520;28;20744;-72
2021/04/30 00:15:34;;;;;;;1.10;0.80;;;;;;;;;;5033114;28;20178;-72
2021/04/30 00:18:05;;;;;;;1.10;0.80;;;;;;;;;;5033731;28;20642;-71
2021/04/30 00:20:33;;;;;;;1.10;0.70;;;;;;;;;;5033403;28;20170;-72
2021/04/30 00:22:59;;;;;;;1.10;0.80;;;;;;;;;;5028984;28;20556;-72
2021/04/30 00:25:25;;;;;;;1.10;0.80;;;;;;;;;;5032554;28;20182;-72
2021/04/30 00:27:51;;;;;;;1.10;0.80;;;;;;;;;;5013822;28;20414;-71
2021/04/30 00:30:17;;;;;;;1.10;0.80;;;;;;;;;;5013586;28;20471;-71
2021/04/30 00:32:43;;;;;;;1.10;0.73;;;;;;;;;;5013383;28;20426;-72
2021/04/30 00:35:09;;;;;;;1.10;0.80;;;;;;;;;;5030224;28;20219;-72
2021/04/30 00:37:37;;;;;;;1.10;0.80;;;;;;;;;;5035152;28;20425;-72
2021/04/30 00:40:05;;;;;;;1.10;0.80;;;;;;;;;;5038309;28;20179;-71
2021/04/30 00:42:31;;;;;;;1.10;0.80;;;;;;;;;;5032241;28;20184;-71
2021/04/30 00:44:59;;;;;;;1.10;0.80;;;;;;;;;;5040151;28;20182;-72
2021/04/30 00:47:29;;;;;;;1.10;0.80;;;;;;;;;;5050673;28;20431;-72
2021/04/30 00:49:55;;;;;;;1.10;0.80;;;;;;;;;;5044889;28;20581;-72
2021/04/30 00:52:21;;;;;;;1.10;1.00;;;;;;;;;;5032600;28;20585;-72
2021/04/30 00:54:47;;;;;;;1.10;0.80;;;;;;;;;;5021457;28;20261;-72
2021/04/30 00:57:14;;;;;;;1.10;0.80;;;;;;;;;;5024937;28;20206;-72
2021/04/30 00:59:40;;;;;;;1.10;0.80;;;;;;;;;;5031886;28;20704;-72
2021/04/30 01:02:06;;;;;;;1.10;0.70;;;;;;;;;;5039509;28;20332;-72
2021/04/30 01:04:32;;;;;;;1.10;0.80;;;;;;;;;;5032681;28;20297;-72
2021/04/30 01:06:58;;;;;;;1.10;0.80;;;;;;;;;;5032408;28;20269;-72
2021/04/30 01:09:24;;;;;;;1.10;0.80;;;;;;;;;;5032453;28;20424;-72
2021/04/30 01:11:51;;;;;;;1.10;0.80;;;;;;;;;;5019228;28;20429;-72
2021/04/30 01:14:17;;;;;;;1.10;0.80;;;;;;;;;;5032355;28;20861;-72
2021/04/30 01:16:43;;;;;;;1.10;0.80;;;;;;;;;;5032547;28;20175;-72
2021/04/30 01:19:09;;;;;;;1.10;0.77;;;;;;;;;;5029681;28;20234;-72
2021/04/30 01:21:35;;;;;;;1.10;0.80;;;;;;;;;;5032371;28;20438;-72
2021/04/30 01:24:01;;;;;;;1.07;0.80;;;;;;;;;;5032295;28;20236;-71
2021/04/30 01:26:27;;;;;;;1.10;0.70;;;;;;;;;;5031213;28;20420;-71
2021/04/30 01:28:53;;;;;;;1.10;0.80;;;;;;;;;;5031551;28;20269;-71
2021/04/30 01:31:19;;;;;;;1.10;0.80;;;;;;;;;;5037004;28;20421;-71
2021/04/30 01:33:53;;;;;;;1.10;0.70;;;;;;;;;;5050494;28;20542;-72
2021/04/30 01:36:19;;;;;;;1.10;0.80;;;;;;;;;;5032224;28;20873;-71
2021/04/30 01:38:45;;;;;;;1.10;0.80;;;;;;;;;;5032081;28;20190;-71
2021/04/30 01:41:11;;;;;;;1.10;0.80;;;;;;;;;;5031469;28;20421;-72
2021/04/30 01:43:37;;;;;;;1.10;0.80;;;;;;;;;;5031627;28;20551;-71
2021/04/30 01:46:05;;;;;;;1.10;0.70;;;;;;;;;;5031025;28;20427;-72
2021/04/30 01:48:33;;;;;;;1.10;0.80;;;;;;;;;;5032067;28;20732;-71
2021/04/30 01:50:59;;;;;;;1.08;0.70;;;;;;;;;;5031443;28;20224;-71
2021/04/30 01:53:26;;;;;;;1.10;0.80;;;;;;;;;;5031585;28;20229;-71
2021/04/30 01:55:53;;;;;;;1.10;0.80;;;;;;;;;;5031217;28;20187;-71
2021/04/30 01:58:19;;;;;;;1.10;0.70;;;;;;;;;;5030316;28;20190;-71
2021/04/30 02:00:45;;;;;;;1.10;0.80;;;;;;;;;;5037224;28;20374;-71
2021/04/30 02:03:11;;;;;;;1.10;0.80;;;;;;;;;;5048986;28;20670;-71
2021/04/30 02:05:38;;;;;;;1.10;0.80;;;;;;;;;;5046534;28;20221;-71
2021/04/30 02:08:05;;;;;;;1.10;0.90;;;;;;;;;;5031753;28;20181;-72
2021/04/30 02:10:31;;;;;;;1.10;0.80;;;;;;;;;;5031018;28;20207;-72
2021/04/30 02:12:58;;;;;;;1.10;0.80;;;;;;;;;;5031699;28;20194;-72
2021/04/30 02:15:27;;;;;;;1.10;0.80;;;;;;;;;;5031418;28;20210;-72
2021/04/30 02:17:53;;;;;;;1.10;0.70;;;;;;;;;;5031860;28;20204;-71
2021/04/30 02:20:19;;;;;;;1.10;0.70;;;;;;;;;;5030779;28;20207;-71
2021/04/30 02:22:45;;;;;;;1.10;0.70;;;;;;;;;;5031079;28;20685;-72
2021/04/30 02:25:12;;;;;;;1.10;0.70;;;;;;;;;;5031549;28;20558;-71
2021/04/30 02:27:38;;;;;;;1.10;0.70;;;;;;;;;;5026557;28;20185;-72
2021/04/30 02:30:08;;;;;;;1.10;0.80;;;;;;;;;;5037341;28;20182;-72
2021/04/30 02:32:34;;;;;;;1.10;0.80;;;;;;;;;;5042880;28;20234;-71
2021/04/30 02:35:01;;;;;;;1.10;0.80;;;;;;;;;;5036707;28;20616;-72
2021/04/30 02:37:28;;;;;;;1.10;0.70;;;;;;;;;;5032914;28;20176;-72
2021/04/30 02:39:54;;;;;;;1.10;0.70;;;;;;;;;;5030604;28;20215;-72
2021/04/30 02:42:20;;;;;;;1.10;0.80;;;;;;;;;;5038324;28;20221;-72
2021/04/30 02:44:46;;;;;;;1.10;0.80;;;;;;;;;;5031381;28;20432;-72
2021/04/30 02:47:12;;;;;;;1.10;0.70;;;;;;;;;;5031460;28;20201;-72
2021/04/30 02:49:46;;;;;;;1.10;0.70;;;;;;;;;;5031069;28;20202;-72
2021/04/30 02:52:13;;;;;;;1.10;0.70;;;;;;;;;;5031098;28;20188;-72
2021/04/30 02:54:38;;;;;;;1.10;0.80;;;;;;;;;;5030589;28;20214;-72
2021/04/30 02:57:05;;;;;;;1.10;0.73;;;;;;;;;;5030674;28;20456;-72
2021/04/30 02:59:31;;;;;;;1.10;0.70;;;;;;;;;;5035191;28;20421;-72
2021/04/30 03:01:57;;;;;;;1.10;0.80;;;;;;;;;;5034808;28;20585;-72
2021/04/30 03:04:24;;;;;;;1.10;0.70;;;;;;;;;;5034891;22;20440;-76
2021/04/30 03:06:50;;;;;;;1.10;0.70;;;;;;;;;;5015079;28;20547;-77
2021/04/30 03:09:16;;;;;;;1.10;0.70;;;;;;;;;;5015313;28;20179;-76
2021/04/30 03:11:42;;;;;;;1.10;0.70;;;;;;;;;;5014671;28;20180;-76
2021/04/30 03:14:08;;;;;;;1.10;0.80;;;;;;;;;;5014687;28;20458;-76
2021/04/30 03:16:34;;;;;;;1.10;0.80;;;;;;;;;;5013603;28;20181;-76
2021/04/30 03:19:00;;;;;;;1.10;0.80;;;;;;;;;;5020820;28;20262;-76
2021/04/30 03:21:26;;;;;;;1.10;0.70;;;;;;;;;;5014508;28;20180;-76
2021/04/30 03:23:52;;;;;;;1.10;0.80;;;;;;;;;;5014392;28;20699;-76
2021/04/30 03:26:18;;;;;;;1.10;0.80;;;;;;;;;;5013930;28;20190;-77
2021/04/30 03:28:44;;;;;;;1.10;0.80;;;;;;;;;;5014563;28;20271;-76
2021/04/30 03:31:11;;;;;;;1.10;0.80;;;;;;;;;;5014356;28;20632;-76
2021/04/30 03:33:37;;;;;;;1.10;0.70;;;;;;;;;;5000291;28;20490;-76
2021/04/30 03:36:04;;;;;;;1.10;0.70;;;;;;;;;;5014509;28;20181;-77
2021/04/30 03:38:30;;;;;;;1.10;0.80;;;;;;;;;;5014248;28;20175;-76
2021/04/30 03:40:56;;;;;;;1.10;0.70;;;;;;;;;;5012570;28;20226;-77
2021/04/30 03:43:22;;;;;;;1.10;0.70;;;;;;;;;;5007519;28;20988;-76
2021/04/30 03:45:50;;;;;;;1.10;0.70;;;;;;;;;;5014341;28;20883;-77
2021/04/30 03:48:16;;;;;;;1.10;0.70;;;;;;;;;;5017774;28;20640;-76
2021/04/30 03:50:42;;;;;;;1.10;0.70;;;;;;;;;;5031769;28;20630;-76
2021/04/30 03:53:08;;;;;;;1.00;0.70;;;;;;;;;;5014064;28;20200;-76
2021/04/30 03:55:34;;;;;;;1.07;0.70;;;;;;;;;;5014265;28;20508;-77
2021/04/30 03:58:00;;;;;;;1.10;0.80;;;;;;;;;;5014420;28;20428;-77
2021/04/30 04:00:26;;;;;;;1.10;0.80;;;;;;;;;;5014114;28;20437;-76
2021/04/30 04:02:52;;;;;;;1.10;0.80;;;;;;;;;;5015142;28;20420;-76
2021/04/30 04:05:19;;;;;;;1.10;0.80;;;;;;;;;;5022074;28;20224;-76
2021/04/30 04:07:44;;;;;;;1.10;0.80;;;;;;;;;;5011958;28;20183;-76
2021/04/30 04:10:11;;;;;;;1.10;0.80;;;;;;;;;;5012931;28;20177;-76
2021/04/30 04:12:37;;;;;;;1.10;0.80;;;;;;;;;;5012483;28;20196;-76
2021/04/30 04:15:03;;;;;;;1.10;0.70;;;;;;;;;;5014087;28;20753;-77
2021/04/30 04:17:29;;;;;;;1.10;0.70;;;;;;;;;;5012874;28;20217;-76
2021/04/30 04:19:55;;;;;;;1.10;0.70;;;;;;;;;;5013785;28;20183;-75
2021/04/30 04:22:21;;;;;;;1.10;0.70;;;;;;;;;;5013823;28;20179;-76
2021/04/30 04:24:47;;;;;;;1.10;0.80;;;;;;;;;;5014149;28;20438;-75
2021/04/30 04:27:13;;;;;;;1.10;0.70;;;;;;;;;;5012856;28;20780;-76
2021/04/30 04:29:39;;;;;;;1.10;0.70;;;;;;;;;;5013743;28;20209;-75
2021/04/30 04:32:06;;;;;;;1.10;0.70;;;;;;;;;;5013217;28;20441;-75
2021/04/30 04:34:32;;;;;;;1.10;0.70;;;;;;;;;;5033278;28;20472;-75
2021/04/30 04:36:58;;;;;;;1.10;0.80;;;;;;;;;;5032956;28;20250;-75
2021/04/30 04:39:29;;;;;;;1.10;0.80;;;;;;;;;;5014877;28;20189;-75
2021/04/30 04:41:55;;;;;;;1.10;0.80;;;;;;;;;;5012985;28;20262;-75
2021/04/30 04:44:22;;;;;;;1.10;0.77;;;;;;;;;;5012006;28;20286;-75
2021/04/30 04:46:47;;;;;;;1.10;0.70;;;;;;;;;;5013425;28;20188;-76
2021/04/30 04:49:14;;;;;;;1.10;0.80;;;;;;;;;;5028015;28;20668;-75
2021/04/30 04:51:40;;;;;;;1.10;0.80;;;;;;;;;;5012461;28;20446;-75
2021/04/30 04:54:06;;;;;;;1.10;0.80;;;;;;;;;;5012747;28;20203;-75
2021/04/30 04:56:33;;;;;;;1.10;0.80;;;;;;;;;;5012191;28;20556;-75
2021/04/30 04:58:59;;;;;;;1.10;0.90;;;;;;;;;;5012605;28;20215;-75
2021/04/30 05:01:25;;;;;;;1.10;0.80;;;;;;;;;;5011103;28;20191;-75
2021/04/30 05:03:51;;;;;;;1.10;0.80;;;;;;;;;;5011911;28;20230;-75
2021/04/30 05:06:17;;;;;;;1.10;0.70;;;;;;;;;;5010707;28;20188;-75
2021/04/30 05:08:43;;;;;;;1.10;0.80;;;;;;;;;;4994957;28;20188;-75
2021/04/30 05:11:09;;;;;;;1.10;0.80;;;;;;;;;;5011523;28;20955;-75
2021/04/30 05:13:35;;;;;;;1.10;0.70;;;;;;;;;;5009971;28;20458;-75
2021/04/30 05:16:02;;;;;;;1.10;0.80;;;;;;;;;;5012317;28;20226;-75
2021/04/30 05:18:29;;;;;;;1.10;0.70;;;;;;;;;;5012485;28;20208;-75
2021/04/30 05:20:55;;;;;;;1.10;0.70;;;;;;;;;;5012186;28;20173;-75
2021/04/30 05:23:22;;;;;;;1.10;0.70;;;;;;;;;;5011254;28;20196;-75
2021/04/30 05:25:48;;;;;;;1.10;0.70;;;;;;;;;;5016393;28;20185;-75
2021/04/30 05:28:14;;;;;;;1.10;0.80;;;;;;;;;;5030261;28;20642;-75
2021/04/30 05:30:41;;;;;;;1.10;0.80;;;;;;;;;;5026543;28;20195;-76
2021/04/30 05:33:07;;;;;;;1.10;0.80;;;;;;;;;;5021003;28;20209;-75
2021/04/30 05:35:33;;;;;;;1.10;0.70;;;;;;;;;;5031909;28;20321;-75
2021/04/30 05:37:59;;;;;;;1.10;0.70;;;;;;;;;;5024760;28;20578;-75
2021/04/30 05:40:25;;;;;;;1.10;0.70;;;;;;;;;;5012395;28;20211;-75
2021/04/30 05:42:51;;;;;;;1.10;0.70;;;;;;;;;;5022193;28;20184;-75
2021/04/30 05:45:17;;;;;;;1.10;0.70;;;;;;;;;;5011876;28;20184;-75
2021/04/30 05:47:44;;;;;;;1.10;0.70;;;;;;;;;;4992811;28;20180;-75
2021/04/30 05:50:10;;;;;;;1.10;0.70;;;;;;;;;;5023404;28;20788;-75
2021/04/30 05:52:36;;;;;;;1.10;0.80;;;;;;;;;;5020339;28;20542;-75
2021/04/30 05:55:03;;;;;;;1.10;0.70;;;;;;;;;;5012067;28;20207;-75
2021/04/30 05:57:29;;;;;;;1.10;0.75;;;;;;;;;;5011845;28;20203;-75
2021/04/30 05:59:54;;;;;;;1.10;0.73;;;;;;;;;;5011823;28;20661;-75
2021/04/30 06:02:20;;;;;;;1.10;0.80;;;;;;;;;;5010216;28;20993;-75
2021/04/30 06:04:46;;;;;;;1.10;0.80;;;;;;;;;;5019353;28;20479;-75
2021/04/30 06:07:12;;;;;;;1.10;0.70;;;;;;;;;;5011852;28;20558;-75
2021/04/30 06:09:38;;;;;;;1.10;0.70;;;;;;;;;;5019125;28;20436;-75
2021/04/30 06:12:05;;;;;;;1.10;0.80;;;;;;;;;;5031776;28;20168;-75
2021/04/30 06:14:32;;;;;;;1.10;0.70;;;;;;;;;;5015671;28;20992;-75
2021/04/30 06:16:58;;;;;;;1.10;0.70;;;;;;;;;;5011989;28;20166;-75
2021/04/30 06:19:24;;;;;;;1.10;0.70;;;;;;;;;;5009171;28;20557;-75
2021/04/30 06:21:50;;;;;;;1.10;0.70;;;;;;;;;;5016711;28;20416;-75
2021/04/30 06:24:16;;;;;;;1.10;0.80;;;;;;;;;;5011619;28;20287;-75
2021/04/30 06:26:42;;;;;;;1.10;0.80;;;;;;;;;;5011705;28;20181;-75
2021/04/30 06:29:09;;;;;;;1.10;0.70;;;;;;;;;;5011642;28;20181;-75
2021/04/30 06:31:35;;;;;;;1.10;0.70;;;;;;;;;;5011086;28;20193;-75
2021/04/30 06:34:01;;;;;;;1.10;0.80;;;;;;;;;;5014777;28;20207;-75
2021/04/30 06:36:27;;;;;;;1.10;0.80;;;;;;;;;;5017905;28;20188;-75
2021/04/30 06:38:53;;;;;;;1.10;0.70;;;;;;;;;;5014201;28;20445;-75
2021/04/30 06:41:19;;;;;;;1.10;0.70;;;;;;;;;;5015186;28;20404;-76
2021/04/30 06:43:45;;;;;;;1.10;0.70;;;;;;;;;;5014433;28;20941;-75
2021/04/30 06:46:11;;;;;;;1.10;0.70;;;;;;;;;;5015475;28;20410;-75
2021/04/30 06:48:37;;;;;;;1.10;0.70;;;;;;;;;;5015755;28;20186;-75
2021/04/30 06:51:03;;;;;;;1.10;0.70;;;;;;;;;;5021420;28;20527;-75
2021/04/30 06:53:29;;;;;;;1.10;0.70;;;;;;;;;;5015221;28;20457;-75
2021/04/30 06:55:55;;;;;;;1.10;0.80;;;;;;;;;;5015262;28;20178;-75
2021/04/30 06:58:21;;;;;;;1.10;0.70;;;;;;;;;;5015209;28;20523;-76
2021/04/30 07:00:47;;;;;;;1.10;0.70;;;;;;;;;;5015132;28;20173;-75
2021/04/30 07:03:13;;;;;;;1.10;0.80;;;;;;;;;;5013759;28;20250;-75
2021/04/30 07:05:39;;;;;;;1.10;0.80;;;;;;;;;;5013537;28;20436;-75
2021/04/30 07:08:05;;;;;;;1.10;0.80;;;;;;;;;;5014966;28;20423;-75
2021/04/30 07:10:32;;;;;;;1.10;0.70;;;;;;;;;;5015003;28;20787;-75
2021/04/30 07:12:58;;;;;;;1.10;0.70;;;;;;;;;;5013407;28;20264;-75
2021/04/30 07:15:24;;;;;;;1.10;0.70;;;;;;;;;;5014995;28;20666;-76
2021/04/30 07:17:50;;;;;;;1.10;0.70;;;;;;;;;;5015145;28;20651;-75
2021/04/30 07:20:17;;;;;;;1.10;0.70;;;;;;;;;;5017816;28;20261;-75
2021/04/30 07:22:43;;;;;;;1.10;0.70;;;;;;;;;;5014253;28;20186;-75
2021/04/30 07:25:09;;;;;;;1.10;0.80;;;;;;;;;;5013626;28;20206;-75
2021/04/30 07:27:35;;;;;;;1.10;0.70;;;;;;;;;;5013892;28;20421;-75
2021/04/30 07:30:01;;;;;;;1.10;0.70;;;;;;;;;;5013634;28;20182;-75
2021/04/30 07:32:27;;;;;;;1.10;0.80;;;;;;;;;;5015682;28;20188;-76
2021/04/30 07:34:53;;;;;;;1.10;0.80;;;;;;;;;;5025333;28;20277;-75
2021/04/30 07:37:19;;;;;;;1.10;0.70;;;;;;;;;;5024010;28;20525;-75
2021/04/30 07:39:45;;;;;;;1.10;0.80;;;;;;;;;;5015135;28;20426;-75
2021/04/30 07:42:11;;;;;;;1.10;0.70;;;;;;;;;;5013488;28;20406;-75
2021/04/30 07:44:38;;;;;;;1.10;0.70;;;;;;;;;;5013699;28;20696;-75
2021/04/30 07:47:04;;;;;;;1.10;0.70;;;;;;;;;;5017396;28;20307;-75
2021/04/30 07:49:31;;;;;;;1.10;0.70;;;;;;;;;;5027302;28;20654;-75
2021/04/30 07:51:57;;;;;;;1.10;0.70;;;;;;;;;;5013538;28;20551;-75
2021/04/30 07:54:23;;;;;;;1.10;0.70;;;;;;;;;;5012673;28;20214;-75
2021/04/30 07:56:50;;;;;;;1.10;0.90;;;;;;;;;;5014354;28;20804;-75
2021/04/30 07:59:16;;;;;;;1.10;0.70;;;;;;;;;;5013005;28;20464;-75
2021/04/30 08:01:42;;;;;;;1.10;0.70;;;;;;;;;;5016079;28;20179;-75
2021/04/30 08:04:08;;;;;;;1.10;0.70;;;;;;;;;;5033809;28;20217;-75
2021/04/30 08:06:34;;;;;;;1.10;0.70;;;;;;;;;;5015549;28;20432;-75
2021/04/30 08:09:00;;;;;;;1.10;0.70;;;;;;;;;;5005322;28;20438;-75
2021/04/30 08:11:26;;;;;;;1.10;0.70;;;;;;;;;;5004846;28;20187;-75
2021/04/30 08:13:52;;;;;;;1.10;0.70;;;;;;;;;;5012682;28;20669;-76
2021/04/30 08:16:18;;;;;;;1.10;0.70;;;;;;;;;;5014256;28;20467;-75
2021/04/30 08:18:44;;;;;;;1.10;0.70;;;;;;;;;;5012616;28;20266;-75
2021/04/30 08:21:10;;;;;;;1.10;0.70;;;;;;;;;;5012204;28;20748;-74
2021/04/30 08:23:36;;;;;;;1.10;0.70;;;;;;;;;;5013234;28;20818;-75
2021/04/30 08:26:03;;;;;;;1.10;0.70;;;;;;;;;;5013668;28;20417;-75
2021/04/30 08:28:28;;;;;;;1.10;0.80;;;;;;;;;;5012087;28;20265;-75
2021/04/30 08:30:55;;;;;;;1.10;0.80;;;;;;;;;;5012006;28;20267;-75
2021/04/30 08:33:26;;;;;;;1.10;0.80;;;;;;;;;;5013290;28;20556;-75
2021/04/30 08:35:53;;;;;;;1.10;0.70;;;;;;;;;;5013538;28;20231;-75
2021/04/30 08:38:19;;;;;;;1.10;0.70;;;;;;;;;;5019842;28;20626;-75
2021/04/30 08:40:47;;;;;;;1.10;0.80;;;;;;;;;;5012889;28;20222;-75
2021/04/30 08:43:13;;;;;;;1.10;0.70;;;;;;;;;;5012085;28;20345;-75
2021/04/30 08:45:40;;;;;;;1.10;0.70;;;;;;;;;;5013328;28;20666;-75
2021/04/30 08:48:13;;;;;;;1.10;0.70;;;;;;;;;;5013192;28;20196;-75
2021/04/30 08:50:40;;;;;;;1.10;0.70;;;;;;;;;;5011798;28;20653;-75
2021/04/30 08:53:06;;;;;;;1.10;0.70;;;;;;;;;;5010496;28;20193;-75
2021/04/30 08:55:33;;;;;;;1.10;0.70;;;;;;;;;;5012348;28;20218;-75
2021/04/30 08:57:59;;;;;;;1.10;0.70;;;;;;;;;;5012712;28;20405;-75
2021/04/30 09:00:27;;;;;;;1.10;0.70;;;;;;;;;;5002797;28;20245;-75
2021/04/30 09:02:53;;;;;;;1.10;0.70;;;;;;;;;;5011398;28;20175;-75
2021/04/30 09:05:26;;;;;;;1.85;1.67;;;;;;;;;;5008831;28;20194;-75
2021/04/30 09:07:54;;;;;;;1.10;0.75;;;;;;;;;;5006248;28;20245;-75
2021/04/30 09:10:21;;;;;;;1.10;0.70;;;;;;;;;;5013133;28;20262;-75
2021/04/30 09:13:02;;;;;;;1.10;0.70;;;;;;;;;;5012568;28;20174;-75
2021/04/30 09:15:28;;;;;;;1.10;0.70;;;;;;;;;;5012488;28;20199;-76
2021/04/30 09:17:57;;;;;;;1.10;0.70;;;;;;;;;;5012549;28;20685;-75
2021/04/30 09:20:23;;;;;;;1.10;0.70;;;;;;;;;;5012011;28;20183;-75
2021/04/30 09:22:49;;;;;;;1.10;0.70;;;;;;;;;;5012170;28;20220;-75
2021/04/30 09:25:16;;;;;;;1.10;0.70;;;;;;;;;;5012328;28;20425;-75
2021/04/30 09:27:50;;;;;;;1.10;0.70;;;;;;;;;;5028328;28;20431;-75
2021/04/30 09:30:15;;;;;;;1.10;0.70;;;;;;;;;;5020173;28;20193;-75
2021/04/30 09:33:01;;;;;;;1.10;0.80;;;;;;;;;;5011125;28;20179;-75
2021/04/30 09:35:27;;;;;;;1.65;1.55;;;;;;;;;;5012456;28;20464;-75
2021/04/30 09:37:53;;;;;;;1.25;1.15;;;;;;;;;;5012096;28;20252;-75
2021/04/30 09:40:24;;;;;;;1.10;0.70;;;;;;;;;;5016393;28;20182;-75
2021/04/30 09:43:01;;;;;;;1.10;0.70;;;;;;;;;;5013502;28;20167;-75
2021/04/30 09:45:27;;;;;;;1.10;0.70;;;;;;;;;;5018643;28;20188;-75
2021/04/30 09:47:58;;;;;;;1.10;0.70;;;;;;;;;;5012054;28;20193;-75
2021/04/30 09:50:25;;;;;;;1.10;0.80;;;;;;;;;;5012540;28;20650;-75
2021/04/30 09:52:54;;;;;;;1.10;0.80;;;;;;;;;;5011779;28;20179;-75
2021/04/30 09:55:20;;;;;;;1.10;0.80;;;;;;;;;;5010994;28;20241;-75
2021/04/30 09:57:48;;;;;;;1.10;0.70;;;;;;;;;;5013069;28;20305;-75
2021/04/30 10:00:14;;;;;;;1.10;0.70;;;;;;;;;;5017192;28;20216;-75
2021/04/30 10:02:41;;;;;;;1.10;0.70;;;;;;;;;;5011827;28;20182;-75
2021/04/30 10:05:14;;;;;;;1.10;0.70;;;;;;;;;;5011354;28;20226;-75
2021/04/30 10:07:41;;;;;;;1.10;0.70;;;;;;;;;;5010845;28;20179;-75
2021/04/30 10:10:09;;;;;;;1.10;0.70;;;;;;;;;;5011696;28;20186;-75
2021/04/30 10:12:46;;;;;;;1.10;0.70;;;;;;;;;;5012008;28;20767;-75
2021/04/30 10:15:13;;;;;;;1.10;0.70;;;;;;;;;;5011516;28;20214;-75
2021/04/30 10:17:39;;;;;;;1.10;0.75;;;;;;;;;;5019662;28;20235;-75
2021/04/30 10:20:06;;;;;;;1.10;0.70;;;;;;;;;;5031722;28;20629;-75
2021/04/30 10:22:34;;;;;;;1.10;0.70;;;;;;;;;;5026603;28;20183;-75
2021/04/30 10:25:01;;;;;;;1.10;0.70;;;;;;;;;;5011777;28;20218;-75
2021/04/30 10:27:34;;;;;;;1.10;0.70;;;;;;;;;;5011888;28;20320;-75
2021/04/30 10:30:06;;;;;;;1.10;0.70;;;;;;;;;;5011958;28;20225;-75
2021/04/30 10:32:35;;;;;;;1.10;0.70;;;;;;;;;;5010421;28;20193;-75
2021/04/30 10:35:03;;;;;;;1.10;0.70;;;;;;;;;;5010704;28;20265;-75
2021/04/30 10:37:31;;;;;;;1.10;0.60;;;;;;;;;;5010380;28;20187;-75
2021/04/30 10:39:59;;;;;;;1.00;0.60;;;;;;;;;;5011743;28;20171;-76
2021/04/30 10:42:39;;;;;;;1.00;0.70;;;;;;;;;;5011581;28;20175;-75
2021/04/30 10:45:06;;;;;;;1.10;0.80;;;;;;;;;;5010969;28;20658;-75
2021/04/30 10:47:33;;;;;;;1.00;0.60;;;;;;;;;;5011375;28;20185;-75
2021/04/30 10:50:16;;;;;;;1.00;0.70;;;;;;;;;;5016996;28;20225;-75
2021/04/30 10:52:42;;;;;;;1.00;0.60;;;;;;;;;;5025001;28;20769;-75
2021/04/30 10:55:08;;;;;;;1.00;0.70;;;;;;;;;;5009789;28;20281;-75
2021/04/30 10:57:47;;;;;;;1.00;0.70;;;;;;;;;;5011232;28;20179;-75
2021/04/30 11:00:13;;;;;;;1.00;0.70;;;;;;;;;;5011099;28;20241;-76
2021/04/30 11:02:39;;;;;;;1.00;0.70;;;;;;;;;;5009997;28;20178;-75
2021/04/30 11:05:12;;;;;;;1.00;0.60;;;;;;;;;;5011327;28;20214;-75
2021/04/30 11:07:39;;;;;;;1.00;0.70;;;;;;;;;;5010082;28;20183;-75
2021/04/30 11:10:32;;;;;;;1.00;0.70;;;;;;;;;;5011434;28;20603;-75
2021/04/30 11:13:13;;;;;;;1.00;0.60;;;;;;;;;;5011307;28;20175;-76
2021/04/30 11:15:50;;;;;;;1.00;0.60;;;;;;;;;;5011095;28;20701;-75
2021/04/30 11:18:19;;;;;;;1.00;0.65;;;;;;;;;;5011388;28;20643;-75
2021/04/30 11:20:56;;;;;;;1.00;0.70;;;;;;;;;;5014445;28;20705;-76
2021/04/30 11:23:23;;;;;;;1.00;0.70;;;;;;;;;;5014972;28;20718;-76
2021/04/30 11:25:58;;;;;;;1.00;0.60;;;;;;;;;;5013183;28;20230;-75
2021/04/30 11:28:24;;;;;;;1.00;0.60;;;;;;;;;;5014902;28;20182;-76
2021/04/30 11:30:59;;;;;;;1.00;0.60;;;;;;;;;;5014616;28;20564;-76
2021/04/30 11:33:26;;;;;;;0.90;0.60;;;;;;;;;;5010908;28;20432;-75
2021/04/30 11:35:52;;;;;;;0.90;0.60;;;;;;;;;;5025508;28;20678;-76
2021/04/30 11:38:18;;;;;;;0.90;0.60;;;;;;;;;;5014447;28;20179;-75
2021/04/30 11:40:44;;;;;;;0.90;0.70;;;;;;;;;;5014287;28;20171;-76
2021/04/30 11:43:10;;;;;;;1.00;0.70;;;;;;;;;;5014452;28;20502;-76
2021/04/30 11:45:37;;;;;;;0.90;0.60;;;;;;;;;;5011853;28;20211;-76
2021/04/30 11:48:03;;;;;;;1.00;0.60;;;;;;;;;;4994715;28;20203;-76
2021/04/30 11:50:30;;;;;;;0.90;0.60;;;;;;;;;;5002390;28;20215;-76
2021/04/30 11:52:56;;;;;;;0.90;0.68;;;;;;;;;;5013899;28;20555;-76
2021/04/30 11:55:23;;;;;;;0.90;0.60;;;;;;;;;;5014291;28;20206;-76
2021/04/30 11:57:59;;;;;;;0.90;0.60;;;;;;;;;;5014166;28;20404;-76
2021/04/30 12:00:26;;;;;;;0.90;0.60;;;;;;;;;;5022949;28;20187;-76
2021/04/30 12:02:59;;;;;;;0.90;0.60;;;;;;;;;;5012596;28;20183;-76
2021/04/30 12:05:25;;;;;;;0.90;0.60;;;;;;;;;;5012949;28;20208;-76
2021/04/30 12:07:51;;;;;;;0.90;0.63;;;;;;;;;;5013901;28;20441;-76
2021/04/30 12:10:36;;;;;;;0.90;0.70;;;;;;;;;;5014014;28;20547;-76
2021/04/30 12:13:02;;;;;;;0.90;0.70;;;;;;;;;;5013134;28;20206;-76
2021/04/30 12:15:37;;;;;;;0.90;0.60;;;;;;;;;;5011904;28;20852;-76
2021/04/30 12:18:03;;;;;;;0.90;0.70;;;;;;;;;;5003415;28;20428;-76
2021/04/30 12:20:31;;;;;;;1.42;1.33;;;;;;;;;;5013817;28;20647;-76
2021/04/30 12:23:07;;;;;;;0.90;0.80;;;;;;;;;;5013132;28;20212;-76
2021/04/30 12:25:36;;;;;;;1.60;1.03;;;;;;;;;;5003962;28;21113;-76
2021/04/30 12:28:21;;;;;;;0.90;0.60;;;;;;;;;;5019773;28;20924;-76
2021/04/30 12:30:48;;;;;;;0.90;0.60;;;;;;;;;;5030242;28;20738;-76
2021/04/30 12:33:22;;;;;;;0.90;0.50;;;;;;;;;;4992882;28;20427;-76
2021/04/30 12:35:48;;;;;;;0.90;0.60;;;;;;;;;;4992593;28;20213;-76
2021/04/30 12:38:14;;;;;;;0.80;0.60;;;;;;;;;;5002344;28;20809;-76
2021/04/30 12:40:40;;;;;;;0.80;0.60;;;;;;;;;;5012826;28;20912;-76
2021/04/30 12:43:06;;;;;;;0.80;0.60;;;;;;;;;;5022325;28;20509;-76
2021/04/30 12:45:32;;;;;;;0.80;0.60;;;;;;;;;;5014012;28;20424;-76
2021/04/30 12:47:59;;;;;;;0.80;0.60;;;;;;;;;;5013080;28;20438;-76
2021/04/30 12:50:26;;;;;;;0.70;0.50;;;;;;;;;;5012771;28;20886;-76
2021/04/30 12:52:53;;;;;;;0.70;0.50;;;;;;;;;;5012158;28;20448;-76
2021/04/30 12:55:22;;;;;;;0.60;0.50;;;;;;;;;;5013002;28;20465;-76
2021/04/30 12:58:08;;;;;;;0.60;0.50;;;;;;;;;;5013396;28;20425;-76
2021/04/30 13:00:52;;;;;;;0.60;0.40;;;;;;;;;;5027495;28;20455;-76
2021/04/30 13:03:18;;;;;;;0.60;0.40;;;;;;;;;;5021903;28;20507;-76
2021/04/30 13:05:44;;;;;;;0.60;0.40;;;;;;;;;;5013165;28;20407;-76
2021/04/30 13:08:11;;;;;;;0.60;0.50;;;;;;;;;;5012809;28;20434;-76
2021/04/30 13:10:37;;;;;;;0.60;0.50;;;;;;;;;;5012485;28;20415;-76
2021/04/30 13:13:06;;;;;;;0.60;0.50;;;;;;;;;;5012466;28;20433;-76
2021/04/30 13:15:32;;;;;;;0.60;0.50;;;;;;;;;;5016345;28;20466;-75
2021/04/30 13:17:58;;;;;;;0.60;0.50;;;;;;;;;;5011722;28;20582;-75
2021/04/30 13:20:31;;;;;;;0.60;0.50;;;;;;;;;;5010208;28;20560;-75
2021/04/30 13:23:06;;;;;;;0.60;0.50;;;;;;;;;;5011796;28;20430;-75
2021/04/30 13:25:33;;;;;;;0.60;0.50;;;;;;;;;;5012277;28;20435;-75
2021/04/30 13:28:08;;;;;;;0.60;0.50;;;;;;;;;;5012514;28;20422;-75
2021/04/30 13:30:35;;;;;;;0.60;0.50;;;;;;;;;;5010541;28;20441;-75
2021/04/30 13:33:18;;;;;;;0.60;0.50;;;;;;;;;;5011939;28;20444;-75
2021/04/30 13:35:44;;;;;;;0.70;0.60;;;;;;;;;;5011864;28;20461;-75
2021/04/30 13:38:11;;;;;;;0.70;0.50;;;;;;;;;;5011350;28;20461;-75
2021/04/30 13:40:37;;;;;;;0.70;0.60;;;;;;;;;;5012181;28;20421;-75
2021/04/30 13:43:06;;;;;;;0.70;0.60;;;;;;;;;;5011911;28;20836;-75
2021/04/30 13:45:35;;;;;;;0.70;0.60;;;;;;;;;;5010913;28;20441;-75
2021/04/30 13:48:01;;;;;;;2.20;0.80;;;;;;;;;;5012414;28;20518;-75
2021/04/30 13:50:35;;;;;;;0.70;0.60;;;;;;;;;;5012110;28;20426;-75
2021/04/30 13:53:05;;;;;;;0.70;0.50;;;;;;;;;;5011495;28;20438;-75
2021/04/30 13:55:31;;;;;;;0.70;0.50;;;;;;;;;;5018837;28;20500;-75
2021/04/30 13:57:57;;;;;;;0.60;0.50;;;;;;;;;;5031988;28;20882;-75
2021/04/30 14:00:24;;;;;;;0.60;0.50;;;;;;;;;;5025457;28;20439;-76
2021/04/30 14:02:50;;;;;;;0.60;0.43;;;;;;;;;;5010324;28;20427;-73
2021/04/30 14:05:17;;;;;;;0.60;0.40;;;;;;;;;;5011433;28;20406;-76
2021/04/30 14:07:43;;;;;;;0.83;0.80;;;;;;;;;;5003631;28;20430;-75
2021/04/30 14:10:10;;;;;;;0.60;0.40;;;;;;;;;;5012084;28;20460;-77
2021/04/30 14:12:36;;;;;;;0.60;0.40;;;;;;;;;;5012076;28;20451;-77
2021/04/30 14:15:06;;;;;;;0.60;0.40;;;;;;;;;;5011789;28;20468;-73
2021/04/30 14:17:32;;;;;;;0.60;0.40;;;;;;;;;;5011559;28;20857;-73
2021/04/30 14:19:58;;;;;;;0.60;0.50;;;;;;;;;;5012065;28;20403;-73
2021/04/30 14:22:24;;;;;;;0.60;0.50;;;;;;;;;;5011109;28;20426;-73
2021/04/30 14:24:50;;;;;;;0.60;0.50;;;;;;;;;;5017842;28;20860;-73
2021/04/30 14:27:16;;;;;;;0.60;0.50;;;;;;;;;;5031742;28;20418;-73
2021/04/30 14:29:42;;;;;;;0.60;0.50;;;;;;;;;;5022213;28;20430;-73
2021/04/30 14:32:08;;;;;;;0.60;0.50;;;;;;;;;;5009302;28;20442;-73
2021/04/30 14:34:34;;;;;;;0.60;0.50;;;;;;;;;;5011331;28;20474;-73
2021/04/30 14:37:00;;;;;;;0.70;0.70;;;;;;;;;;5010512;28;20428;-73
2021/04/30 14:39:26;;;;;;;0.60;0.50;;;;;;;;;;5010117;28;20496;-73
2021/04/30 14:41:52;;;;;;;0.60;0.40;;;;;;;;;;5011760;28;20406;-73
2021/04/30 14:44:18;;;;;;;0.60;0.50;;;;;;;;;;5017471;28;20471;-73